Latest Weather Observations for Fortescue Dave Forrest

IDW60801

Issued at 8:32 am WST Monday 22 December 2014 (issued every 30 minutes, with the page automatically refreshed every 10 minutes)

About weather observations | Map of weather stations | Latest weather observations for WA | Other Formats
Station Details ID: 505056 Name: FORTESCUE DAVE FORREST Lat: -22.29 Lon: 119.43 Height: 474.6 m
Data from the previous 72 hours. | See also: Recent months for locations in Western Australia
Date/Time
WST
Temp
°C
App
Temp
°C
Dew
Point
Rel
Hum
%
Delta-T
°C
Wind Press
QNH
hPa
Press
MSL
hPa
Rain
since 9 am
mm
Dir
 
Spd
km/h
Gust
km/h
Spd
kts
Gust
kts
22/08:30am 30.9 30.7 17.5 44 8.7 N 15 26 8 14 1011.3 1007.3 0.0
22/08:00am 30.0 29.3 18.2 49 7.7 N 19 26 10 14 1011.1 1007.2 0.0
22/07:30am 29.6 28.8 18.1 50 7.5 N 19 26 10 14 1011.1 1007.2 0.0
22/07:00am 28.3 27.5 18.4 55 6.5 N 20 28 11 15 1010.5 1006.6 0.0
22/06:30am 27.8 27.6 18.5 57 6.1 N 17 22 9 12 1010.2 1006.3 0.0
22/06:00am 27.0 26.7 18.3 59 5.6 NNW 17 24 9 13 1009.9 1006.0 0.0
22/05:30am 26.0 26.7 18.9 65 4.6 NNW 13 17 7 9 1009.7 1005.7 0.0
22/05:00am 26.1 26.7 18.7 63 4.8 NNW 13 19 7 10 1009.4 1005.4 0.0
22/04:30am 25.9 27.4 18.8 65 4.6 N 9 13 5 7 1009.2 1005.2 0.0
22/04:00am 26.7 27.2 18.4 60 5.4 N 13 19 7 10 1009.1 1005.1 0.0
22/03:30am 27.3 27.3 18.1 57 5.9 NNE 15 20 8 11 1008.8 1004.9 0.0
22/03:00am 26.6 28.3 18.4 60 5.3 N 7 11 4 6 1008.7 1004.8 0.0
22/02:30am 27.3 27.7 18.2 57 5.9 ENE 13 17 7 9 1008.6 1004.7 0.0
22/02:00am 27.9 27.9 17.3 52 6.8 NE 13 19 7 10 1008.4 1004.5 0.0
22/01:30am 28.4 28.7 16.0 47 7.8 NNW 9 15 5 8 1008.4 1004.5 0.0
22/01:00am 28.7 29.1 16.3 47 7.9 NNW 9 15 5 8 1008.2 1004.3 0.0
22/12:30am 28.7 29.7 16.8 48 7.6 NNW 7 11 4 6 1008.3 1004.4 0.0
22/12:00am 28.8 28.5 16.4 47 7.9 NW 13 22 7 12 1008.4 1004.5 0.0
 
Date/Time
WST
Temp
°C
App
Temp
°C
Dew
Point
Rel
Hum
%
Delta-T
°C
Wind Press
QNH
hPa
Press
MSL
hPa
Rain
since 9 am
mm
Dir
 
Spd
km/h
Gust
km/h
Spd
kts
Gust
kts
21/11:30pm 29.9 27.7 15.0 40 9.3 WSW 20 33 11 18 1008.0 1004.1 0.0
21/11:00pm 31.0 30.2 13.9 35 10.5 NNW 11 15 6 8 1007.3 1003.3 0.0
21/10:30pm 30.6 28.7 14.1 36 10.2 WNW 17 24 9 13 1008.0 1004.1 0.0
21/10:00pm 30.0 27.9 14.7 39 9.5 WNW 19 26 10 14 1008.7 1004.8 0.0
21/09:30pm 31.2 27.4 13.7 34 10.7 W 26 35 14 19 1009.4 1005.4 0.0
21/09:00pm 30.8 29.2 14.9 38 9.9 WNW 17 28 9 15 1010.0 1006.1 0.0
21/08:30pm 31.4 29.0 14.5 35 10.5 WNW 20 32 11 17 1010.0 1006.1 0.0
21/08:00pm 31.2 30.0 15.0 37 10.2 WSW 15 22 8 12 1008.7 1004.8 0.0
21/07:30pm 32.0 29.9 13.7 33 11.3 SW 17 24 9 13 1008.7 1004.8 0.0
21/07:00pm 32.6 31.7 12.7 29 12.1 ESE 9 17 5 9 1007.5 1003.5 0.0
21/06:30pm 32.2 31.4 12.9 31 11.8 SSW 9 15 5 8 1007.4 1003.4 0.0
21/06:00pm 31.2 28.2 15.9 39 9.7 WSW 26 35 14 19 1007.2 1003.2 0.0
21/05:30pm 31.4 29.1 16.7 41 9.4 WSW 24 52 13 28 1007.4 1003.4 0.0
21/05:22pm 31.2 27.0 17.2 43 9.0 WSW 35 56 19 30 1006.5 1002.6 0.0
21/05:00pm 36.3 32.0 12.1 23 14.8 WSW 26 59 14 32 1005.7 1001.7 0.0
21/04:30pm 38.4 36.0 13.7 23 15.6 N 19 28 10 15 1005.6 1001.6 0.0
21/04:00pm 38.8 36.1 14.6 24 15.5 N 22 33 12 18 1005.5 1001.5 0.0
21/03:30pm 38.5 36.8 13.5 22 15.7 NW 15 22 8 12 1006.0 1002.1 0.0
21/03:00pm 38.5 36.5 13.9 23 15.6 NNW 17 30 9 16 1006.8 1002.8 0.0
21/02:30pm 38.6 36.5 13.5 22 15.8 W 17 33 9 18 1007.3 1003.3 0.0
21/02:00pm 38.7 37.4 13.6 22 15.8 W 13 30 7 16 1007.8 1003.8 0.0
21/01:30pm 37.7 36.2 13.1 23 15.3 NW 13 30 7 16 1008.2 1004.3 0.0
21/01:00pm 37.8 37.2 13.5 23 15.3 NNW 9 26 5 14 1008.5 1004.6 0.0
21/12:30pm 36.9 34.9 12.8 23 14.9 NNW 15 26 8 14 1009.1 1005.1 0.0
21/12:00pm 36.6 34.8 13.2 24 14.6 NW 15 26 8 14 1009.4 1005.4 0.0
21/11:30am 35.7 33.8 14.3 27 13.5 N 17 30 9 16 1009.7 1005.7 0.0
21/11:00am 35.2 33.7 14.3 28 13.1 N 15 26 8 14 1010.2 1006.3 0.0
21/10:30am 34.0 32.6 14.5 31 12.2 NW 15 22 8 12 1010.6 1006.7 0.0
21/10:00am 32.9 32.0 15.9 36 10.9 N 15 26 8 14 1010.9 1007.0 0.0
21/09:30am 31.9 31.0 16.9 40 9.7 N 17 24 9 13 1011.0 1007.1 0.0
21/09:00am 31.2 30.7 17.8 44 8.7 N 17 22 9 12 1011.0 1007.1 3.2
21/08:30am 29.7 28.9 17.2 47 8.0 N 17 20 9 11 1010.9 1007.0 3.2
21/08:00am 28.5 28.3 17.6 51 7.0 N 15 20 8 11 1010.9 1007.0 3.2
21/07:30am 27.7 28.3 18.5 57 6.0 N 13 20 7 11 1010.9 1007.0 3.2
21/07:00am 27.1 27.3 17.7 56 6.0 N 13 19 7 10 1010.7 1006.8 3.2
21/06:30am 26.3 27.6 18.4 61 5.1 N 9 15 5 8 1010.7 1006.8 3.2
21/06:00am 25.2 27.1 18.6 67 4.3 N 6 7 3 4 1010.5 1006.6 3.2
21/05:30am 25.1 27.6 18.2 65 4.4 NNE 2 7 1 4 1010.1 1006.2 3.2
21/05:00am 25.1 26.5 18.7 67 4.2 WNW 9 11 5 6 1009.6 1005.6 3.2
21/04:30am 25.5 25.8 18.0 63 4.8 WNW 13 17 7 9 1009.3 1005.3 3.2
21/04:00am 25.8 26.4 17.8 61 5.1 NNW 11 17 6 9 1008.9 1005.0 3.2
21/03:30am 25.3 27.1 19.5 70 3.8 N 9 13 5 7 1009.2 1005.2 3.2
21/03:00am 25.2 27.2 20.8 76 2.9 N 11 15 6 8 1009.5 1005.5 3.2
21/02:30am 25.6 27.1 20.5 73 3.4 N 13 15 7 8 1009.6 1005.6 3.2
21/02:00am 25.5 27.6 21.0 76 3.0 N 11 19 6 10 1009.9 1006.0 3.2
21/01:30am 25.7 27.3 20.7 74 3.3 NNE 13 19 7 10 1010.1 1006.2 3.2
21/01:00am 25.6 27.2 20.8 75 3.2 NNE 13 19 7 10 1010.4 1006.5 3.2
21/12:30am 25.4 27.1 21.0 76 2.9 NNE 13 17 7 9 1011.1 1007.2 3.2
21/12:00am 25.3 28.3 21.3 78 2.7 ENE 7 9 4 5 1011.7 1007.7 3.2
 
Date/Time
WST
Temp
°C
App
Temp
°C
Dew
Point
Rel
Hum
%
Delta-T
°C
Wind Press
QNH
hPa
Press
MSL
hPa
Rain
since 9 am
mm
Dir
 
Spd
km/h
Gust
km/h
Spd
kts
Gust
kts
20/11:30pm 25.0 27.4 21.6 81 2.3 NNE 11 15 6 8 1011.7 1007.7 3.2
20/11:00pm 24.8 26.7 21.3 81 2.4 NNE 13 19 7 10 1011.8 1007.9 3.2
20/10:30pm 25.0 26.1 21.2 79 2.6 NNE 17 28 9 15 1012.1 1008.2 3.2
20/10:00pm 25.3 25.3 20.9 76 2.9 ENE 22 32 12 17 1012.1 1008.2 3.2
20/09:30pm 24.9 24.2 21.0 79 2.6 ENE 26 35 14 19 1011.5 1007.5 3.2
20/09:00pm 26.2 25.7 20.8 72 3.6 NNE 24 39 13 21 1011.0 1007.1 2.8
20/08:55pm 26.1 27.1 21.0 73 3.4 NNE 17 33 9 18 1010.9 1007.0 2.8
20/08:35pm 28.7 29.3 21.0 63 5.2 SSW 19 32 10 17 1010.7 1006.8 1.4
20/08:30pm 31.2 30.2 16.6 41 9.4 S 17 32 9 17 1010.5 1006.6 0.0
20/08:07pm 34.9 32.8 14.7 29 12.7 WSW 19 39 10 21 1008.7 1004.8 0.0
20/08:00pm 36.8 34.7 13.6 25 14.5 WNW 17 24 9 13 1007.9 1004.0 0.0
20/07:30pm 37.2 34.2 13.6 24 14.8 NW 22 30 12 16 1007.3 1003.3 0.0
20/07:00pm 37.6 35.0 13.1 23 15.3 NW 19 26 10 14 1007.0 1003.0 0.0
20/06:30pm 37.9 35.6 13.1 22 15.5 NW 17 28 9 15 1006.6 1002.7 0.0
20/06:00pm 38.4 36.3 13.5 22 15.7 NW 17 20 9 11 1006.3 1002.4 0.0
20/05:30pm 38.2 35.6 13.7 23 15.4 WNW 20 26 11 14 1006.1 1002.2 0.0
20/05:00pm 37.2 34.9 14.0 25 14.6 NNE 19 28 10 15 1006.4 1002.5 0.0
20/04:30pm 39.2 37.6 13.8 22 16.1 NNW 15 26 8 14 1006.6 1002.7 0.0
20/04:00pm 37.9 35.2 13.5 23 15.3 NW 20 28 11 15 1006.9 1002.9 0.0
20/03:30pm 38.9 37.9 13.5 22 16.0 NNW 11 28 6 15 1007.1 1003.1 0.0
20/03:00pm 39.0 36.8 13.3 21 16.2 NNW 17 26 9 14 1007.3 1003.3 0.0
20/02:30pm 38.9 36.5 12.7 21 16.3 N 17 30 9 16 1007.9 1004.0 0.0
20/02:00pm 38.7 37.1 12.9 21 16.1 NW 13 28 7 15 1008.4 1004.5 0.0
20/01:30pm 39.0 38.2 12.9 21 16.3 NW 9 30 5 16 1008.7 1004.8 0.0
20/01:00pm 39.4 37.8 12.9 20 16.6 WNW 13 30 7 16 1009.3 1005.3 0.0
20/12:30pm 38.6 36.9 12.5 21 16.2 NW 13 26 7 14 1009.9 1006.0 0.0
20/12:00pm 37.9 36.9 12.4 21 15.8 NW 9 24 5 13 1010.2 1006.3 0.0
20/11:30am 37.2 36.3 12.6 23 15.2 NNW 9 22 5 12 1010.7 1006.8 0.0
20/11:00am 37.5 35.9 11.7 21 15.8 NE 11 37 6 20 1011.1 1007.2 0.0
20/10:30am 36.8 35.5 11.1 21 15.5 WSW 9 20 5 11 1011.7 1007.7 0.0
20/10:00am 35.8 34.3 10.7 21 15.0 WSW 9 24 5 13 1012.3 1008.4 0.0
20/09:30am 35.7 34.2 10.5 21 15.0 SSW 9 19 5 10 1012.6 1008.7 0.0
20/09:00am 35.0 33.7 9.9 21 14.8 SSW 7 15 4 8 1012.9 1009.0 0.0
20/08:30am 34.8 34.3 10.9 23 14.3 S 4 7 2 4 1013.0 1009.1 0.0
20/08:00am 32.9 32.1 11.2 26 12.9 WSW 6 11 3 6 1013.1 1009.2 0.0
20/07:30am 31.8 30.9 11.3 28 12.2 WSW 7 13 4 7 1012.9 1009.0 0.0
20/07:00am 31.0 30.5 12.0 31 11.4 NW 6 11 3 6 1012.7 1008.8 0.0
20/06:30am 29.7 29.2 12.2 34 10.4 NNW 6 9 3 5 1012.6 1008.7 0.0
20/06:00am 29.1 26.9 12.2 35 10.1 WNW 15 20 8 11 1011.8 1007.9 0.0
20/05:30am 28.9 26.7 12.0 35 10.0 WNW 15 20 8 11 1011.6 1007.6 0.0
20/05:00am 29.2 26.9 11.8 34 10.3 WNW 15 20 8 11 1011.5 1007.5 0.0
20/04:30am 29.3 27.9 12.3 35 10.1 NW 11 17 6 9 1011.8 1007.9 0.0
20/04:00am 29.3 28.9 12.5 35 10.1 NW 6 13 3 7 1011.8 1007.9 0.0
20/03:30am 29.5 27.5 12.6 35 10.1 NW 15 19 8 10 1011.5 1007.5 0.0
20/03:00am 29.6 28.2 12.2 34 10.4 NNW 11 17 6 9 1011.5 1007.5 0.0
20/02:30am 29.5 27.6 11.7 33 10.5 WNW 13 19 7 10 1011.5 1007.5 0.0
20/02:00am 29.5 27.5 11.6 33 10.6 NW 13 17 7 9 1011.6 1007.6 0.0
20/01:30am 29.3 28.0 12.5 35 10.1 WNW 11 17 6 9 1012.0 1008.1 0.0
20/01:00am 29.6 28.2 13.3 36 9.9 NW 13 19 7 10 1012.2 1008.3 0.0
20/12:30am 30.1 28.6 13.0 35 10.3 NW 13 19 7 10 1012.5 1008.6 0.0
20/12:00am 30.2 28.3 13.1 35 10.4 WNW 15 22 8 12 1012.8 1008.9 0.0
 
Date/Time
WST
Temp
°C
App
Temp
°C
Dew
Point
Rel
Hum
%
Delta-T
°C
Wind Press
QNH
hPa
Press
MSL
hPa
Rain
since 9 am
mm
Dir
 
Spd
km/h
Gust
km/h
Spd
kts
Gust
kts
19/11:30pm 30.4 27.6 14.4 37 9.9 WNW 22 30 12 16 1013.2 1009.3 0.0
19/11:00pm 30.6 27.5 14.5 37 10.0 WNW 24 37 13 20 1013.2 1009.3 0.0
19/10:30pm 31.5 27.5 13.1 32 11.2 WNW 26 37 14 20 1013.2 1009.3 0.0
19/10:00pm 32.3 27.1 11.7 28 12.3 NW 30 41 16 22 1012.5 1008.6 0.0
19/09:30pm 33.0 28.4 11.0 26 13.1 NW 26 35 14 19 1012.3 1008.4 0.0
19/09:00pm 33.8 28.2 10.3 23 13.9 NW 30 43 16 23 1011.7 1007.7 0.0
19/08:30pm 34.5 28.6 11.2 24 14.0 NW 33 44 18 24 1011.1 1007.2 0.0
19/08:00pm 35.1 29.8 13.1 26 13.6 NW 33 43 18 23 1010.9 1007.0 0.0
19/07:37pm 36.1 31.7 12.8 24 14.4 NW 28 46 15 25 1010.6 1006.7 0.0
19/07:30pm 36.3 31.4 12.6 24 14.6 NW 30 41 16 22 1010.5 1006.6 0.0
19/07:00pm 37.0 32.7 12.1 22 15.3 NW 26 35 14 19 1010.1 1006.2 0.0
19/06:30pm 37.7 33.7 11.8 21 15.8 NW 24 30 13 16 1009.8 1005.8 0.0
19/06:00pm 38.4 34.3 11.4 19 16.5 NW 24 32 13 17 1009.6 1005.6 0.0
19/05:30pm 38.7 34.0 11.9 20 16.5 NNW 28 41 15 22 1009.4 1005.4 0.0
19/05:00pm 38.7 34.3 11.6 19 16.6 NNW 26 43 14 23 1009.2 1005.2 0.0
19/04:30pm 39.4 35.3 11.3 18 17.2 N 24 37 13 20 1009.2 1005.2 0.0
19/04:00pm 39.5 35.7 11.3 18 17.3 NW 22 35 12 19 1009.2 1005.2 0.0
19/03:30pm 38.9 34.8 11.5 19 16.8 NNW 24 41 13 22 1009.6 1005.6 0.0
19/03:00pm 39.2 35.9 11.6 19 16.9 NNE 20 30 11 16 1010.0 1006.1 0.0
19/02:30pm 38.4 35.1 11.7 20 16.3 N 20 39 11 21 1010.4 1006.5 0.0
19/02:00pm 38.2 34.3 12.2 21 16.0 NNW 24 33 13 18 1010.9 1007.0 0.0
19/01:30pm 38.1 34.6 12.2 21 16.0 NNW 22 41 12 22 1011.1 1007.2 0.0
19/01:00pm 37.4 34.6 13.2 23 15.1 N 20 35 11 19 1011.7 1007.7 0.0
19/12:30pm 36.9 34.2 13.6 24 14.6 N 20 33 11 18 1011.8 1007.9 0.0
19/12:00pm 37.0 33.5 14.6 26 14.2 NNW 26 41 14 22 1012.2 1008.3 0.0
19/11:30am 35.8 33.1 15.6 30 12.9 N 24 35 13 19 1012.6 1008.7 0.0
19/11:00am 35.4 32.0 14.8 29 13.0 N 26 37 14 20 1013.1 1009.2 0.0
19/10:30am 34.9 31.4 14.6 29 12.8 NNW 26 37 14 20 1013.2 1009.3 0.0
19/10:00am 34.5 30.9 13.1 27 13.2 NW 24 33 13 18 1013.1 1009.2 0.0
19/09:30am 34.0 31.7 14.7 31 12.1 NNW 20 32 11 17 1013.2 1009.3 0.0
19/09:00am 31.9 30.4 16.3 39 10.0 NNW 19 28 10 15 1013.3 1009.4 0.0

Other Formats:

Comma delimited format used in spreadsheet applications
http://www.bom.gov.au/fwo/IDW60801/IDW60801.99736.axf

JavaScript Object Notation format (JSON) in row-major order
http://www.bom.gov.au/fwo/IDW60801/IDW60801.99736.json